sensor_id;sensor_type;location;lat;lon;timestamp;temperature;humidity
3348;DHT22;1687;49.540;8.574;2022-11-18T00:04:49;11.60;99.00
3348;DHT22;1687;49.540;8.574;2022-11-18T00:07:15;11.50;98.70
3348;DHT22;1687;49.540;8.574;2022-11-18T00:09:41;11.50;98.70
3348;DHT22;1687;49.540;8.574;2022-11-18T00:12:06;11.40;99.10
3348;DHT22;1687;49.540;8.574;2022-11-18T00:14:50;11.50;98.80
3348;DHT22;1687;49.540;8.574;2022-11-18T00:17:16;11.50;98.90
3348;DHT22;1687;49.540;8.574;2022-11-18T00:19:42;11.50;98.80
3348;DHT22;1687;49.540;8.574;2022-11-18T00:22:10;11.50;98.90
3348;DHT22;1687;49.540;8.574;2022-11-18T00:24:37;11.50;99.00
3348;DHT22;1687;49.540;8.574;2022-11-18T00:27:03;11.50;99.00
3348;DHT22;1687;49.540;8.574;2022-11-18T00:29:28;11.50;98.90
3348;DHT22;1687;49.540;8.574;2022-11-18T00:31:56;11.50;99.00
3348;DHT22;1687;49.540;8.574;2022-11-18T00:34:23;11.60;98.90
3348;DHT22;1687;49.540;8.574;2022-11-18T00:36:49;11.60;99.00
3348;DHT22;1687;49.540;8.574;2022-11-18T00:39:16;11.60;99.00
3348;DHT22;1687;49.540;8.574;2022-11-18T00:41:43;11.70;99.00
3348;DHT22;1687;49.540;8.574;2022-11-18T00:44:28;11.70;99.10
3348;DHT22;1687;49.540;8.574;2022-11-18T00:46:54;11.70;98.90
3348;DHT22;1687;49.540;8.574;2022-11-18T00:49:22;11.70;99.10
3348;DHT22;1687;49.540;8.574;2022-11-18T00:51:47;11.70;98.70
3348;DHT22;1687;49.540;8.574;2022-11-18T00:54:13;11.70;99.10
3348;DHT22;1687;49.540;8.574;2022-11-18T00:56:39;11.70;98.90
3348;DHT22;1687;49.540;8.574;2022-11-18T00:59:04;11.70;99.00
3348;DHT22;1687;49.540;8.574;2022-11-18T01:01:30;11.80;99.20
3348;DHT22;1687;49.540;8.574;2022-11-18T01:03:56;11.80;99.20
3348;DHT22;1687;49.540;8.574;2022-11-18T01:06:22;11.90;99.20
3348;DHT22;1687;49.540;8.574;2022-11-18T01:08:47;11.90;99.20
3348;DHT22;1687;49.540;8.574;2022-11-18T01:11:13;11.80;98.90
3348;DHT22;1687;49.540;8.574;2022-11-18T01:13:57;11.80;99.00
3348;DHT22;1687;49.540;8.574;2022-11-18T01:16:25;11.80;99.00
3348;DHT22;1687;49.540;8.574;2022-11-18T01:18:52;11.80;99.00
3348;DHT22;1687;49.540;8.574;2022-11-18T01:21:18;11.80;99.00
3348;DHT22;1687;49.540;8.574;2022-11-18T01:23:44;11.80;99.00
3348;DHT22;1687;49.540;8.574;2022-11-18T01:26:12;11.80;99.10
3348;DHT22;1687;49.540;8.574;2022-11-18T01:28:39;11.80;99.10
3348;DHT22;1687;49.540;8.574;2022-11-18T01:31:07;11.90;99.10
3348;DHT22;1687;49.540;8.574;2022-11-18T01:33:42;11.90;99.00
3348;DHT22;1687;49.540;8.574;2022-11-18T01:36:18;11.80;98.90
3348;DHT22;1687;49.540;8.574;2022-11-18T01:38:45;11.80;98.90
3348;DHT22;1687;49.540;8.574;2022-11-18T01:41:12;11.80;99.00
3348;DHT22;1687;49.540;8.574;2022-11-18T01:43:48;11.80;98.90
3348;DHT22;1687;49.540;8.574;2022-11-18T01:46:17;11.80;99.00
3348;DHT22;1687;49.540;8.574;2022-11-18T01:48:46;11.80;99.10
3348;DHT22;1687;49.540;8.574;2022-11-18T01:51:17;11.80;99.00
3348;DHT22;1687;49.540;8.574;2022-11-18T01:53:52;11.80;98.90
3348;DHT22;1687;49.540;8.574;2022-11-18T01:56:30;11.70;99.00
3348;DHT22;1687;49.540;8.574;2022-11-18T01:59:11;11.70;98.90
3348;DHT22;1687;49.540;8.574;2022-11-18T02:01:38;11.70;99.00
3348;DHT22;1687;49.540;8.574;2022-11-18T02:04:06;11.70;98.90
3348;DHT22;1687;49.540;8.574;2022-11-18T02:06:32;11.60;98.70
3348;DHT22;1687;49.540;8.574;2022-11-18T02:08:58;11.60;99.00
3348;DHT22;1687;49.540;8.574;2022-11-18T02:11:25;11.60;99.10
3348;DHT22;1687;49.540;8.574;2022-11-18T02:14:09;11.70;99.20
3348;DHT22;1687;49.540;8.574;2022-11-18T02:16:47;11.70;99.00
3348;DHT22;1687;49.540;8.574;2022-11-18T02:25:10;11.70;99.00
3348;DHT22;1687;49.540;8.574;2022-11-18T02:30:49;11.70;99.10
3348;DHT22;1687;49.540;8.574;2022-11-18T02:33:48;11.80;99.30
3348;DHT22;1687;49.540;8.574;2022-11-18T02:36:24;11.80;99.10
3348;DHT22;1687;49.540;8.574;2022-11-18T02:38:58;11.80;99.10
3348;DHT22;1687;49.540;8.574;2022-11-18T02:41:30;11.80;99.20
3348;DHT22;1687;49.540;8.574;2022-11-18T02:44:03;11.80;99.20
3348;DHT22;1687;49.540;8.574;2022-11-18T02:46:33;11.90;99.20
3348;DHT22;1687;49.540;8.574;2022-11-18T02:49:04;11.90;99.20
3348;DHT22;1687;49.540;8.574;2022-11-18T02:51:35;11.90;99.20
3348;DHT22;1687;49.540;8.574;2022-11-18T02:54:05;11.80;99.00
3348;DHT22;1687;49.540;8.574;2022-11-18T02:56:33;11.80;99.10
3348;DHT22;1687;49.540;8.574;2022-11-18T02:59:00;11.80;99.20
3348;DHT22;1687;49.540;8.574;2022-11-18T03:01:29;11.80;99.20
3348;DHT22;1687;49.540;8.574;2022-11-18T03:03:55;11.80;99.30
3348;DHT22;1687;49.540;8.574;2022-11-18T03:06:34;11.80;99.10
3348;DHT22;1687;49.540;8.574;2022-11-18T03:09:27;11.80;99.30
3348;DHT22;1687;49.540;8.574;2022-11-18T03:18:19;11.70;98.90
3348;DHT22;1687;49.540;8.574;2022-11-18T03:20:57;11.70;99.30
3348;DHT22;1687;49.540;8.574;2022-11-18T03:23:37;11.80;99.30
3348;DHT22;1687;49.540;8.574;2022-11-18T03:26:13;11.80;99.40
3348;DHT22;1687;49.540;8.574;2022-11-18T03:28:45;11.80;99.20
3348;DHT22;1687;49.540;8.574;2022-11-18T03:34:06;11.80;99.20
3348;DHT22;1687;49.540;8.574;2022-11-18T03:36:38;11.90;99.40
3348;DHT22;1687;49.540;8.574;2022-11-18T03:39:07;12.00;99.40
3348;DHT22;1687;49.540;8.574;2022-11-18T03:41:39;12.00;99.30
3348;DHT22;1687;49.540;8.574;2022-11-18T03:44:12;12.00;99.40
3348;DHT22;1687;49.540;8.574;2022-11-18T03:46:44;12.00;99.20
3348;DHT22;1687;49.540;8.574;2022-11-18T03:49:25;12.00;99.30
3348;DHT22;1687;49.540;8.574;2022-11-18T03:52:06;12.00;99.40
3348;DHT22;1687;49.540;8.574;2022-11-18T03:54:46;12.00;99.10
3348;DHT22;1687;49.540;8.574;2022-11-18T03:57:42;12.00;99.30
3348;DHT22;1687;49.540;8.574;2022-11-18T04:00:13;12.00;99.10
3348;DHT22;1687;49.540;8.574;2022-11-18T04:02:40;11.90;99.20
3348;DHT22;1687;49.540;8.574;2022-11-18T04:05:09;11.90;99.40
3348;DHT22;1687;49.540;8.574;2022-11-18T04:07:50;12.00;99.50
3348;DHT22;1687;49.540;8.574;2022-11-18T04:10:26;12.00;99.50
3348;DHT22;1687;49.540;8.574;2022-11-18T04:15:58;12.00;99.30
3348;DHT22;1687;49.540;8.574;2022-11-18T04:18:24;12.00;99.30
3348;DHT22;1687;49.540;8.574;2022-11-18T04:20:50;12.00;99.30
3348;DHT22;1687;49.540;8.574;2022-11-18T04:23:15;12.00;99.30
3348;DHT22;1687;49.540;8.574;2022-11-18T04:25:41;12.00;99.20
3348;DHT22;1687;49.540;8.574;2022-11-18T04:28:07;12.00;99.30
3348;DHT22;1687;49.540;8.574;2022-11-18T04:30:32;12.00;99.40
3348;DHT22;1687;49.540;8.574;2022-11-18T04:32:58;12.00;99.50
3348;DHT22;1687;49.540;8.574;2022-11-18T04:35:24;12.10;99.50
3348;DHT22;1687;49.540;8.574;2022-11-18T04:37:50;12.20;99.60
3348;DHT22;1687;49.540;8.574;2022-11-18T04:40:16;12.20;99.50
3348;DHT22;1687;49.540;8.574;2022-11-18T04:42:41;12.20;99.50
3348;DHT22;1687;49.540;8.574;2022-11-18T04:45:08;12.20;99.50
3348;DHT22;1687;49.540;8.574;2022-11-18T04:47:34;12.30;99.60
3348;DHT22;1687;49.540;8.574;2022-11-18T04:50:00;12.30;99.50
3348;DHT22;1687;49.540;8.574;2022-11-18T04:52:26;12.40;99.60
3348;DHT22;1687;49.540;8.574;2022-11-18T04:54:51;12.40;99.50
3348;DHT22;1687;49.540;8.574;2022-11-18T04:57:17;12.40;99.50
3348;DHT22;1687;49.540;8.574;2022-11-18T04:59:43;12.40;99.50
3348;DHT22;1687;49.540;8.574;2022-11-18T05:02:09;12.50;99.60
3348;DHT22;1687;49.540;8.574;2022-11-18T05:04:35;12.50;99.40
3348;DHT22;1687;49.540;8.574;2022-11-18T05:07:02;12.50;99.50
3348;DHT22;1687;49.540;8.574;2022-11-18T05:09:29;12.40;99.40
3348;DHT22;1687;49.540;8.574;2022-11-18T05:11:54;12.40;99.50
3348;DHT22;1687;49.540;8.574;2022-11-18T05:14:39;12.40;99.30
3348;DHT22;1687;49.540;8.574;2022-11-18T05:17:07;12.30;99.20
3348;DHT22;1687;49.540;8.574;2022-11-18T05:19:33;11.90;98.40
3348;DHT22;1687;49.540;8.574;2022-11-18T05:21:59;11.60;98.70
3348;DHT22;1687;49.540;8.574;2022-11-18T05:24:25;11.40;99.00
3348;DHT22;1687;49.540;8.574;2022-11-18T05:26:51;11.20;98.80
3348;DHT22;1687;49.540;8.574;2022-11-18T05:29:18;11.10;98.90
3348;DHT22;1687;49.540;8.574;2022-11-18T05:31:45;11.00;99.10
3348;DHT22;1687;49.540;8.574;2022-11-18T05:34:12;11.00;99.20
3348;DHT22;1687;49.540;8.574;2022-11-18T05:36:38;10.90;99.20
3348;DHT22;1687;49.540;8.574;2022-11-18T05:39:04;10.90;99.00
3348;DHT22;1687;49.540;8.574;2022-11-18T05:41:30;10.80;99.10
3348;DHT22;1687;49.540;8.574;2022-11-18T05:44:14;10.70;99.00
3348;DHT22;1687;49.540;8.574;2022-11-18T05:46:40;10.60;99.00
3348;DHT22;1687;49.540;8.574;2022-11-18T05:49:05;10.50;99.10
3348;DHT22;1687;49.540;8.574;2022-11-18T05:51:32;10.50;99.30
3348;DHT22;1687;49.540;8.574;2022-11-18T05:53:59;10.50;99.30
3348;DHT22;1687;49.540;8.574;2022-11-18T05:56:38;10.50;99.30
3348;DHT22;1687;49.540;8.574;2022-11-18T05:59:05;10.40;99.20
3348;DHT22;1687;49.540;8.574;2022-11-18T06:01:35;10.40;99.20
3348;DHT22;1687;49.540;8.574;2022-11-18T06:04:29;10.40;99.40
3348;DHT22;1687;49.540;8.574;2022-11-18T06:07:02;10.40;99.30
3348;DHT22;1687;49.540;8.574;2022-11-18T06:09:55;10.40;99.30
3348;DHT22;1687;49.540;8.574;2022-11-18T06:12:26;10.30;99.40
3348;DHT22;1687;49.540;8.574;2022-11-18T06:14:58;10.40;99.50
3348;DHT22;1687;49.540;8.574;2022-11-18T06:17:40;10.40;99.40
3348;DHT22;1687;49.540;8.574;2022-11-18T06:20:10;10.30;99.40
3348;DHT22;1687;49.540;8.574;2022-11-18T06:22:35;10.40;99.60
3348;DHT22;1687;49.540;8.574;2022-11-18T06:25:02;10.40;99.50
3348;DHT22;1687;49.540;8.574;2022-11-18T06:27:29;10.40;99.40
3348;DHT22;1687;49.540;8.574;2022-11-18T06:29:55;10.40;99.50
3348;DHT22;1687;49.540;8.574;2022-11-18T06:32:20;10.50;99.70
3348;DHT22;1687;49.540;8.574;2022-11-18T06:34:46;10.60;99.60
3348;DHT22;1687;49.540;8.574;2022-11-18T06:37:14;10.50;99.40
3348;DHT22;1687;49.540;8.574;2022-11-18T06:39:40;10.50;99.40
3348;DHT22;1687;49.540;8.574;2022-11-18T06:42:06;10.40;99.40
3348;DHT22;1687;49.540;8.574;2022-11-18T06:44:32;10.40;99.60
3348;DHT22;1687;49.540;8.574;2022-11-18T06:46:57;10.50;99.70
3348;DHT22;1687;49.540;8.574;2022-11-18T06:49:25;10.60;99.80
3348;DHT22;1687;49.540;8.574;2022-11-18T06:51:52;10.70;99.60
3348;DHT22;1687;49.540;8.574;2022-11-18T06:54:18;10.70;99.90
3348;DHT22;1687;49.540;8.574;2022-11-18T06:56:44;10.80;99.80
3348;DHT22;1687;49.540;8.574;2022-11-18T06:59:10;10.90;99.80
3348;DHT22;1687;49.540;8.574;2022-11-18T07:01:38;11.00;99.60
3348;DHT22;1687;49.540;8.574;2022-11-18T07:04:04;11.00;99.80
3348;DHT22;1687;49.540;8.574;2022-11-18T07:06:32;11.00;99.70
3348;DHT22;1687;49.540;8.574;2022-11-18T07:09:00;11.10;99.80
3348;DHT22;1687;49.540;8.574;2022-11-18T07:11:28;11.20;99.90
3348;DHT22;1687;49.540;8.574;2022-11-18T07:13:54;11.20;99.80
3348;DHT22;1687;49.540;8.574;2022-11-18T07:16:22;11.20;99.70
3348;DHT22;1687;49.540;8.574;2022-11-18T07:18:49;11.30;99.80
3348;DHT22;1687;49.540;8.574;2022-11-18T07:21:21;11.30;99.80
3348;DHT22;1687;49.540;8.574;2022-11-18T07:23:49;11.30;99.70
3348;DHT22;1687;49.540;8.574;2022-11-18T07:26:15;11.40;99.80
3348;DHT22;1687;49.540;8.574;2022-11-18T07:28:41;11.40;99.60
3348;DHT22;1687;49.540;8.574;2022-11-18T07:31:12;11.40;99.80
3348;DHT22;1687;49.540;8.574;2022-11-18T07:33:41;11.40;99.70
3348;DHT22;1687;49.540;8.574;2022-11-18T07:36:13;11.50;99.70
3348;DHT22;1687;49.540;8.574;2022-11-18T07:38:43;11.50;99.70
3348;DHT22;1687;49.540;8.574;2022-11-18T07:41:12;11.40;99.40
3348;DHT22;1687;49.540;8.574;2022-11-18T07:43:39;11.40;99.70
3348;DHT22;1687;49.540;8.574;2022-11-18T07:48:56;11.30;99.40
3348;DHT22;1687;49.540;8.574;2022-11-18T07:51:26;11.20;99.30
3348;DHT22;1687;49.540;8.574;2022-11-18T07:53:53;11.10;99.30
3348;DHT22;1687;49.540;8.574;2022-11-18T07:56:20;11.00;99.30
3348;DHT22;1687;49.540;8.574;2022-11-18T07:58:53;11.00;99.40
3348;DHT22;1687;49.540;8.574;2022-11-18T08:01:21;11.00;99.50
3348;DHT22;1687;49.540;8.574;2022-11-18T08:03:48;11.10;99.60
3348;DHT22;1687;49.540;8.574;2022-11-18T08:06:16;11.10;99.60
3348;DHT22;1687;49.540;8.574;2022-11-18T08:08:43;11.10;99.40
3348;DHT22;1687;49.540;8.574;2022-11-18T08:11:12;11.10;99.40
3348;DHT22;1687;49.540;8.574;2022-11-18T08:13:39;11.10;99.60
3348;DHT22;1687;49.540;8.574;2022-11-18T08:16:12;11.20;99.70
3348;DHT22;1687;49.540;8.574;2022-11-18T08:18:39;11.30;99.60
3348;DHT22;1687;49.540;8.574;2022-11-18T08:21:04;11.20;99.50
3348;DHT22;1687;49.540;8.574;2022-11-18T08:23:31;11.20;99.40
3348;DHT22;1687;49.540;8.574;2022-11-18T08:26:08;11.30;99.60
3348;DHT22;1687;49.540;8.574;2022-11-18T08:28:36;11.30;99.60
3348;DHT22;1687;49.540;8.574;2022-11-18T08:31:13;11.30;99.40
3348;DHT22;1687;49.540;8.574;2022-11-18T08:33:40;11.20;99.40
3348;DHT22;1687;49.540;8.574;2022-11-18T08:36:14;11.20;99.50
3348;DHT22;1687;49.540;8.574;2022-11-18T08:38:44;11.10;99.10
3348;DHT22;1687;49.540;8.574;2022-11-18T08:41:14;11.10;99.40
3348;DHT22;1687;49.540;8.574;2022-11-18T08:43:42;10.90;99.10
3348;DHT22;1687;49.540;8.574;2022-11-18T08:46:07;11.00;99.40
3348;DHT22;1687;49.540;8.574;2022-11-18T08:48:33;11.00;99.60
3348;DHT22;1687;49.540;8.574;2022-11-18T08:50:59;11.00;99.40
3348;DHT22;1687;49.540;8.574;2022-11-18T08:53:25;11.00;99.30
3348;DHT22;1687;49.540;8.574;2022-11-18T08:55:58;11.10;99.50
3348;DHT22;1687;49.540;8.574;2022-11-18T08:58:25;11.00;99.30
3348;DHT22;1687;49.540;8.574;2022-11-18T09:00:51;11.10;99.40
3348;DHT22;1687;49.540;8.574;2022-11-18T09:03:17;11.00;99.10
3348;DHT22;1687;49.540;8.574;2022-11-18T09:05:43;11.00;99.70
3348;DHT22;1687;49.540;8.574;2022-11-18T09:08:09;11.10;99.60
3348;DHT22;1687;49.540;8.574;2022-11-18T09:10:36;11.20;99.70
3348;DHT22;1687;49.540;8.574;2022-11-18T09:13:02;11.30;99.80
3348;DHT22;1687;49.540;8.574;2022-11-18T09:15:28;11.30;99.50
3348;DHT22;1687;49.540;8.574;2022-11-18T09:17:57;11.30;99.40
3348;DHT22;1687;49.540;8.574;2022-11-18T09:20:24;11.20;99.60
3348;DHT22;1687;49.540;8.574;2022-11-18T09:22:50;11.30;99.70
3348;DHT22;1687;49.540;8.574;2022-11-18T09:25:15;11.40;99.60
3348;DHT22;1687;49.540;8.574;2022-11-18T09:27:41;11.40;99.70
3348;DHT22;1687;49.540;8.574;2022-11-18T09:30:07;11.60;99.80
3348;DHT22;1687;49.540;8.574;2022-11-18T09:32:33;11.60;99.60
3348;DHT22;1687;49.540;8.574;2022-11-18T09:34:59;11.70;99.70
3348;DHT22;1687;49.540;8.574;2022-11-18T09:37:25;11.70;99.60
3348;DHT22;1687;49.540;8.574;2022-11-18T09:39:51;11.80;99.70
3348;DHT22;1687;49.540;8.574;2022-11-18T09:42:41;11.80;99.70
3348;DHT22;1687;49.540;8.574;2022-11-18T09:45:42;11.70;99.20
3348;DHT22;1687;49.540;8.574;2022-11-18T09:48:18;11.60;99.40
3348;DHT22;1687;49.540;8.574;2022-11-18T09:50:44;11.70;99.70
3348;DHT22;1687;49.540;8.574;2022-11-18T09:53:24;11.70;99.50
3348;DHT22;1687;49.540;8.574;2022-11-18T09:55:51;11.80;99.60
3348;DHT22;1687;49.540;8.574;2022-11-18T09:58:31;11.90;99.40
3348;DHT22;1687;49.540;8.574;2022-11-18T10:00:59;11.80;99.30
3348;DHT22;1687;49.540;8.574;2022-11-18T10:03:30;11.70;99.30
3348;DHT22;1687;49.540;8.574;2022-11-18T10:11:16;11.90;99.70
3348;DHT22;1687;49.540;8.574;2022-11-18T10:19:29;12.10;99.70
3348;DHT22;1687;49.540;8.574;2022-11-18T10:22:30;12.30;99.60
3348;DHT22;1687;49.540;8.574;2022-11-18T10:24:59;12.30;99.70
3348;DHT22;1687;49.540;8.574;2022-11-18T10:27:39;12.40;99.70
3348;DHT22;1687;49.540;8.574;2022-11-18T10:30:17;12.50;99.50
3348;DHT22;1687;49.540;8.574;2022-11-18T10:33:16;12.50;99.60
3348;DHT22;1687;49.540;8.574;2022-11-18T10:36:28;12.40;99.30
3348;DHT22;1687;49.540;8.574;2022-11-18T10:39:12;12.30;99.50
3348;DHT22;1687;49.540;8.574;2022-11-18T10:41:45;12.40;99.60
3348;DHT22;1687;49.540;8.574;2022-11-18T10:44:33;12.40;99.50
3348;DHT22;1687;49.540;8.574;2022-11-18T10:47:26;12.30;99.20
3348;DHT22;1687;49.540;8.574;2022-11-18T10:49:59;12.40;99.80
3348;DHT22;1687;49.540;8.574;2022-11-18T10:52:27;12.40;99.40
3348;DHT22;1687;49.540;8.574;2022-11-18T10:55:17;12.40;99.60
3348;DHT22;1687;49.540;8.574;2022-11-18T10:57:46;12.40;99.30
3348;DHT22;1687;49.540;8.574;2022-11-18T11:03:35;12.40;99.30
3348;DHT22;1687;49.540;8.574;2022-11-18T11:11:36;12.50;99.60
3348;DHT22;1687;49.540;8.574;2022-11-18T11:17:05;12.70;99.70
3348;DHT22;1687;49.540;8.574;2022-11-18T11:19:42;12.80;99.50
3348;DHT22;1687;49.540;8.574;2022-11-18T11:22:13;12.90;99.70
3348;DHT22;1687;49.540;8.574;2022-11-18T11:24:43;13.00;99.60
3348;DHT22;1687;49.540;8.574;2022-11-18T11:30:16;13.10;99.60
3348;DHT22;1687;49.540;8.574;2022-11-18T11:33:13;13.20;99.70
3348;DHT22;1687;49.540;8.574;2022-11-18T11:39:01;13.30;99.60
3348;DHT22;1687;49.540;8.574;2022-11-18T11:44:54;13.20;99.40
3348;DHT22;1687;49.540;8.574;2022-11-18T11:50:53;13.30;99.10
3348;DHT22;1687;49.540;8.574;2022-11-18T11:56:39;13.30;99.50
3348;DHT22;1687;49.540;8.574;2022-11-18T11:59:43;13.30;99.40
3348;DHT22;1687;49.540;8.574;2022-11-18T12:05:34;13.30;99.40
3348;DHT22;1687;49.540;8.574;2022-11-18T12:08:12;13.30;99.30
3348;DHT22;1687;49.540;8.574;2022-11-18T12:13:30;13.50;99.60
3348;DHT22;1687;49.540;8.574;2022-11-18T12:26:47;13.90;99.50
3348;DHT22;1687;49.540;8.574;2022-11-18T12:29:21;14.00;99.50
3348;DHT22;1687;49.540;8.574;2022-11-18T12:31:51;14.00;99.30
3348;DHT22;1687;49.540;8.574;2022-11-18T12:36:55;14.00;99.40
3348;DHT22;1687;49.540;8.574;2022-11-18T12:41:57;14.00;99.30
3348;DHT22;1687;49.540;8.574;2022-11-18T12:44:47;14.00;99.10
3348;DHT22;1687;49.540;8.574;2022-11-18T12:47:16;14.00;99.10
3348;DHT22;1687;49.540;8.574;2022-11-18T12:50:13;13.90;98.90
3348;DHT22;1687;49.540;8.574;2022-11-18T12:55:18;13.70;99.00
3348;DHT22;1687;49.540;8.574;2022-11-18T12:57:47;13.70;98.90
3348;DHT22;1687;49.540;8.574;2022-11-18T13:02:52;13.60;98.80
3348;DHT22;1687;49.540;8.574;2022-11-18T13:05:22;13.50;98.90
3348;DHT22;1687;49.540;8.574;2022-11-18T13:07:53;13.50;98.60
3348;DHT22;1687;49.540;8.574;2022-11-18T13:10:43;13.40;98.40
3348;DHT22;1687;49.540;8.574;2022-11-18T13:13:30;13.20;98.40
3348;DHT22;1687;49.540;8.574;2022-11-18T13:19:04;13.00;98.50
3348;DHT22;1687;49.540;8.574;2022-11-18T13:21:30;13.00;98.70
3348;DHT22;1687;49.540;8.574;2022-11-18T13:24:19;13.10;98.50
3348;DHT22;1687;49.540;8.574;2022-11-18T13:26:52;13.00;98.00
3348;DHT22;1687;49.540;8.574;2022-11-18T13:29:43;13.00;98.20
3348;DHT22;1687;49.540;8.574;2022-11-18T13:32:23;13.00;98.20
3348;DHT22;1687;49.540;8.574;2022-11-18T13:34:56;13.00;97.80
3348;DHT22;1687;49.540;8.574;2022-11-18T13:37:56;12.90;98.10
3348;DHT22;1687;49.540;8.574;2022-11-18T13:40:29;12.80;97.70
3348;DHT22;1687;49.540;8.574;2022-11-18T13:42:56;12.80;98.00
3348;DHT22;1687;49.540;8.574;2022-11-18T13:45:27;12.80;97.90
3348;DHT22;1687;49.540;8.574;2022-11-18T13:50:46;12.70;98.00
3348;DHT22;1687;49.540;8.574;2022-11-18T13:53:29;12.70;97.70
3348;DHT22;1687;49.540;8.574;2022-11-18T13:56:13;12.60;97.70
3348;DHT22;1687;49.540;8.574;2022-11-18T14:01:22;12.40;97.70
3348;DHT22;1687;49.540;8.574;2022-11-18T14:06:27;12.30;97.70
3348;DHT22;1687;49.540;8.574;2022-11-18T14:11:56;12.30;97.60
3348;DHT22;1687;49.540;8.574;2022-11-18T14:14:44;12.20;97.70
3348;DHT22;1687;49.540;8.574;2022-11-18T14:17:22;12.20;97.70
3348;DHT22;1687;49.540;8.574;2022-11-18T14:19:56;12.30;97.90
3348;DHT22;1687;49.540;8.574;2022-11-18T14:22:29;12.30;97.80
3348;DHT22;1687;49.540;8.574;2022-11-18T14:24:57;12.40;98.00
3348;DHT22;1687;49.540;8.574;2022-11-18T14:27:40;12.50;98.00
3348;DHT22;1687;49.540;8.574;2022-11-18T14:30:54;12.60;97.90
3348;DHT22;1687;49.540;8.574;2022-11-18T14:33:28;12.70;98.40
3348;DHT22;1687;49.540;8.574;2022-11-18T14:38:42;12.90;98.00
3348;DHT22;1687;49.540;8.574;2022-11-18T14:41:10;12.90;97.70
3348;DHT22;1687;49.540;8.574;2022-11-18T14:43:37;12.90;97.80
3348;DHT22;1687;49.540;8.574;2022-11-18T14:46:10;12.80;97.40
3348;DHT22;1687;49.540;8.574;2022-11-18T14:48:38;12.70;97.50
3348;DHT22;1687;49.540;8.574;2022-11-18T14:51:04;12.60;97.40
3348;DHT22;1687;49.540;8.574;2022-11-18T14:53:30;12.50;97.40
3348;DHT22;1687;49.540;8.574;2022-11-18T14:55:57;12.40;97.30
3348;DHT22;1687;49.540;8.574;2022-11-18T14:58:24;12.30;97.10
3348;DHT22;1687;49.540;8.574;2022-11-18T15:00:50;12.20;97.30
3348;DHT22;1687;49.540;8.574;2022-11-18T15:03:16;12.20;97.20
3348;DHT22;1687;49.540;8.574;2022-11-18T15:05:42;12.20;97.30
3348;DHT22;1687;49.540;8.574;2022-11-18T15:08:08;12.10;97.30
3348;DHT22;1687;49.540;8.574;2022-11-18T15:10:34;12.10;97.10
3348;DHT22;1687;49.540;8.574;2022-11-18T15:13:00;12.10;97.20
3348;DHT22;1687;49.540;8.574;2022-11-18T15:15:26;12.10;97.20
3348;DHT22;1687;49.540;8.574;2022-11-18T15:17:51;12.00;97.00
3348;DHT22;1687;49.540;8.574;2022-11-18T15:20:20;12.00;96.90
3348;DHT22;1687;49.540;8.574;2022-11-18T15:22:46;11.90;96.90
3348;DHT22;1687;49.540;8.574;2022-11-18T15:25:12;11.90;97.00
3348;DHT22;1687;49.540;8.574;2022-11-18T15:27:38;12.00;97.10
3348;DHT22;1687;49.540;8.574;2022-11-18T15:30:04;12.00;97.00
3348;DHT22;1687;49.540;8.574;2022-11-18T15:32:30;11.90;96.60
3348;DHT22;1687;49.540;8.574;2022-11-18T15:34:56;11.90;96.60
3348;DHT22;1687;49.540;8.574;2022-11-18T15:37:21;11.80;96.50
3348;DHT22;1687;49.540;8.574;2022-11-18T15:39:47;11.70;96.60
3348;DHT22;1687;49.540;8.574;2022-11-18T15:42:16;11.60;96.50
3348;DHT22;1687;49.540;8.574;2022-11-18T15:44:43;11.50;96.60
3348;DHT22;1687;49.540;8.574;2022-11-18T15:47:10;11.60;96.80
3348;DHT22;1687;49.540;8.574;2022-11-18T15:49:36;11.60;96.80
3348;DHT22;1687;49.540;8.574;2022-11-18T15:52:02;11.60;96.60
3348;DHT22;1687;49.540;8.574;2022-11-18T15:54:27;11.60;96.70
3348;DHT22;1687;49.540;8.574;2022-11-18T15:56:53;11.60;96.50
3348;DHT22;1687;49.540;8.574;2022-11-18T15:59:19;11.60;96.90
3348;DHT22;1687;49.540;8.574;2022-11-18T16:01:46;11.50;96.60
3348;DHT22;1687;49.540;8.574;2022-11-18T16:04:17;11.50;96.60
3348;DHT22;1687;49.540;8.574;2022-11-18T16:06:43;11.50;96.60
3348;DHT22;1687;49.540;8.574;2022-11-18T16:09:10;11.50;96.60
3348;DHT22;1687;49.540;8.574;2022-11-18T16:11:36;11.60;96.60
3348;DHT22;1687;49.540;8.574;2022-11-18T16:14:21;11.60;96.60
3348;DHT22;1687;49.540;8.574;2022-11-18T16:16:48;11.50;96.50
3348;DHT22;1687;49.540;8.574;2022-11-18T16:19:18;11.50;96.60
3348;DHT22;1687;49.540;8.574;2022-11-18T16:21:47;11.60;96.50
3348;DHT22;1687;49.540;8.574;2022-11-18T16:24:17;11.50;96.40
3348;DHT22;1687;49.540;8.574;2022-11-18T16:26:47;11.50;96.40
3348;DHT22;1687;49.540;8.574;2022-11-18T16:29:13;11.50;96.80
3348;DHT22;1687;49.540;8.574;2022-11-18T16:31:41;11.50;96.50
3348;DHT22;1687;49.540;8.574;2022-11-18T16:34:14;11.50;96.50
3348;DHT22;1687;49.540;8.574;2022-11-18T16:36:47;11.50;96.60
3348;DHT22;1687;49.540;8.574;2022-11-18T16:39:19;11.60;96.40
3348;DHT22;1687;49.540;8.574;2022-11-18T16:41:51;11.50;96.40
3348;DHT22;1687;49.540;8.574;2022-11-18T16:44:18;11.50;96.40
3348;DHT22;1687;49.540;8.574;2022-11-18T16:46:49;11.50;96.40
3348;DHT22;1687;49.540;8.574;2022-11-18T16:49:17;11.50;96.40
3348;DHT22;1687;49.540;8.574;2022-11-18T16:51:46;11.50;96.50
3348;DHT22;1687;49.540;8.574;2022-11-18T16:56:46;11.60;96.50
3348;DHT22;1687;49.540;8.574;2022-11-18T16:59:32;11.60;96.60
3348;DHT22;1687;49.540;8.574;2022-11-18T17:01:58;11.70;96.60
3348;DHT22;1687;49.540;8.574;2022-11-18T17:04:26;11.70;96.60
3348;DHT22;1687;49.540;8.574;2022-11-18T17:06:54;11.70;96.50
3348;DHT22;1687;49.540;8.574;2022-11-18T17:09:22;11.70;96.50
3348;DHT22;1687;49.540;8.574;2022-11-18T17:11:49;11.70;96.40
3348;DHT22;1687;49.540;8.574;2022-11-18T17:14:17;11.70;96.40
3348;DHT22;1687;49.540;8.574;2022-11-18T17:16:43;11.70;96.60
3348;DHT22;1687;49.540;8.574;2022-11-18T17:19:13;11.70;96.50
3348;DHT22;1687;49.540;8.574;2022-11-18T17:21:40;11.70;96.50
3348;DHT22;1687;49.540;8.574;2022-11-18T17:24:07;11.70;96.60
3348;DHT22;1687;49.540;8.574;2022-11-18T17:26:33;11.70;96.30
3348;DHT22;1687;49.540;8.574;2022-11-18T17:28:58;11.60;96.40
3348;DHT22;1687;49.540;8.574;2022-11-18T17:31:24;11.60;96.40
3348;DHT22;1687;49.540;8.574;2022-11-18T17:33:52;11.60;96.60
3348;DHT22;1687;49.540;8.574;2022-11-18T17:36:21;11.70;96.80
3348;DHT22;1687;49.540;8.574;2022-11-18T17:38:49;11.70;96.70
3348;DHT22;1687;49.540;8.574;2022-11-18T17:41:18;11.80;96.70
3348;DHT22;1687;49.540;8.574;2022-11-18T17:44:04;11.80;96.50
3348;DHT22;1687;49.540;8.574;2022-11-18T17:46:31;11.90;96.80
3348;DHT22;1687;49.540;8.574;2022-11-18T17:48:59;11.90;96.60
3348;DHT22;1687;49.540;8.574;2022-11-18T17:51:28;12.00;96.80
3348;DHT22;1687;49.540;8.574;2022-11-18T17:53:54;11.90;96.50
3348;DHT22;1687;49.540;8.574;2022-11-18T17:56:20;11.90;96.40
3348;DHT22;1687;49.540;8.574;2022-11-18T17:58:47;11.90;96.20
3348;DHT22;1687;49.540;8.574;2022-11-18T18:01:18;11.80;96.20
3348;DHT22;1687;49.540;8.574;2022-11-18T18:03:45;11.70;96.30
3348;DHT22;1687;49.540;8.574;2022-11-18T18:06:11;11.70;96.40
3348;DHT22;1687;49.540;8.574;2022-11-18T18:08:38;11.70;96.40
3348;DHT22;1687;49.540;8.574;2022-11-18T18:11:09;11.70;96.40
3348;DHT22;1687;49.540;8.574;2022-11-18T18:13:37;11.80;96.60
3348;DHT22;1687;49.540;8.574;2022-11-18T18:16:23;11.80;96.40
3348;DHT22;1687;49.540;8.574;2022-11-18T18:18:49;11.80;96.50